Time;durP1;ratioP1;P1;durP2;ratioP2;P2;SDS_P1;SDS_P2;PMS_P1;PMS_P2;Temp;Humidity;BMP_temperature;BMP_pressure;BME280_temperature;BME280_humidity;BME280_pressure;Samples;Min_cycle;Max_cycle;Signal;HPM_P1;HPM_P2
2023/10/31 00:01:27;;;;;;;5.60;1.60;;;;;;;;;;5040861;28;20041;-41
2023/10/31 00:03:52;;;;;;;6.93;2.08;;;15.50;1.00;;;;;;5043435;28;20120;-41
2023/10/31 00:06:18;;;;;;;6.57;1.98;;;15.50;1.00;;;;;;5050100;28;20118;-41
2023/10/31 00:08:44;;;;;;;4.93;1.48;;;16.40;1.00;;;;;;5043020;28;20493;-41
2023/10/31 00:11:10;;;;;;;4.40;1.63;;;;;;;;;;5047387;28;20045;-41
2023/10/31 00:13:35;;;;;;;5.30;1.80;;;15.90;1.00;;;;;;5046285;28;20037;-41
2023/10/31 00:16:01;;;;;;;5.78;1.55;;;15.90;1.00;;;;;;5044183;28;20029;-41
2023/10/31 00:18:27;;;;;;;7.63;1.58;;;15.90;1.00;;;;;;5045330;28;20135;-41
2023/10/31 00:20:53;;;;;;;4.45;1.55;;;;;;;;;;5047700;28;20073;-41
2023/10/31 00:23:19;;;;;;;6.68;1.92;;;15.20;1.00;;;;;;5049165;28;20077;-41
2023/10/31 00:25:44;;;;;;;5.07;1.48;;;16.40;1.00;;;;;;5048652;28;20033;-41
2023/10/31 00:28:10;;;;;;;4.78;1.42;;;15.50;1.00;;;;;;5051919;28;20602;-41
2023/10/31 00:30:36;;;;;;;4.40;1.52;;;16.40;1.00;;;;;;5044699;28;20029;-41
2023/10/31 00:33:01;;;;;;;5.60;1.58;;;15.80;1.00;;;;;;5049498;28;20385;-41
2023/10/31 00:35:27;;;;;;;3.42;1.30;;;;;;;;;;5048674;28;20033;-41
2023/10/31 00:37:53;;;;;;;5.00;1.40;;;16.00;1.00;;;;;;5051034;28;20029;-41
2023/10/31 00:40:18;;;;;;;5.13;1.88;;;15.20;1.00;;;;;;5044788;28;20041;-41
2023/10/31 00:42:47;;;;;;;4.75;1.20;;;16.20;1.00;;;;;;5047438;28;20046;-40
2023/10/31 00:45:13;;;;;;;5.55;1.60;;;;;;;;;;5052736;28;20069;-40
2023/10/31 00:47:39;;;;;;;4.45;1.35;;;15.80;1.00;;;;;;5047740;28;20080;-40
2023/10/31 00:50:06;;;;;;;4.13;1.23;;;;;;;;;;5046954;28;20508;-41
2023/10/31 00:52:32;;;;;;;5.85;1.90;;;15.80;1.00;;;;;;5047978;28;20094;-41
2023/10/31 00:54:57;;;;;;;3.92;1.20;;;15.10;1.00;;;;;;5044361;28;20417;-41
2023/10/31 00:57:24;;;;;;;4.93;1.58;;;;;;;;;;5049715;28;20036;-40
2023/10/31 00:59:50;;;;;;;5.07;1.52;;;;;;;;;;5050448;28;20086;-41
2023/10/31 01:02:16;;;;;;;4.18;1.60;;;15.10;1.00;;;;;;5045933;28;20044;-39
2023/10/31 01:04:42;;;;;;;6.45;1.80;;;15.70;1.00;;;;;;5047162;28;20039;-39
2023/10/31 01:07:11;;;;;;;6.03;2.30;;;15.70;1.00;;;;;;5045120;28;20306;-41
2023/10/31 01:09:37;;;;;;;4.68;1.20;;;16.20;1.00;;;;;;5038596;28;20044;-41
2023/10/31 01:12:04;;;;;;;5.60;2.30;;;;;;;;;;5047752;28;20036;-40
2023/10/31 01:14:29;;;;;;;5.28;1.92;;;15.40;1.00;;;;;;5052446;28;20123;-41
2023/10/31 01:16:55;;;;;;;6.45;1.77;;;16.20;1.00;;;;;;5050644;28;20556;-41
2023/10/31 01:19:21;;;;;;;6.82;1.92;;;;;;;;;;5047117;28;20036;-41
2023/10/31 01:21:46;;;;;;;6.03;1.70;;;15.40;1.00;;;;;;5046180;28;20045;-41
2023/10/31 01:24:12;;;;;;;6.47;2.08;;;;;;;;;;5047710;28;20598;-41
2023/10/31 01:26:38;;;;;;;6.45;1.90;;;15.50;1.00;;;;;;5049474;28;20587;-41
2023/10/31 01:29:24;;;;;;;4.88;1.63;;;14.90;1.00;;;;;;5050810;28;20124;-41
2023/10/31 01:31:52;;;;;;;7.22;1.60;;;15.40;1.00;;;;;;5044776;28;20052;-41
2023/10/31 01:34:18;;;;;;;7.07;1.67;;;;;;;;;;5050084;28;20116;-40
2023/10/31 01:36:44;;;;;;;4.32;1.55;;;;;;;;;;5051458;28;20090;-39
2023/10/31 01:39:10;;;;;;;5.45;1.70;;;16.20;1.00;;;;;;5043698;28;20045;-40
2023/10/31 01:41:36;;;;;;;5.65;1.55;;;15.40;1.00;;;;;;5044209;28;20447;-39
2023/10/31 01:44:01;;;;;;;5.10;1.50;;;15.40;1.00;;;;;;5048778;28;20073;-41
2023/10/31 01:46:27;;;;;;;4.95;1.67;;;15.50;1.00;;;;;;5047492;28;20436;-41
2023/10/31 01:48:53;;;;;;;5.63;1.60;;;;;;;;;;5045608;28;20400;-41
2023/10/31 01:51:19;;;;;;;7.43;1.60;;;15.00;1.00;;;;;;5052567;28;20051;-41
2023/10/31 01:53:45;;;;;;;7.15;1.80;;;;;;;;;;5047623;28;20454;-41
2023/10/31 01:56:11;;;;;;;4.82;1.50;;;15.40;1.00;;;;;;5044188;28;20446;-41
2023/10/31 01:58:43;;;;;;;4.28;1.30;;;15.00;1.00;;;;;;5049993;28;20163;-42
2023/10/31 02:01:08;;;;;;;7.43;2.17;;;15.50;1.00;;;;;;5038833;28;20029;-40
2023/10/31 02:03:34;;;;;;;4.95;1.65;;;15.50;1.00;;;;;;5042809;28;20101;-41
2023/10/31 02:06:00;;;;;;;5.80;2.10;;;15.80;1.00;;;;;;5042897;28;20126;-41
2023/10/31 02:08:26;;;;;;;7.72;1.95;;;16.20;1.00;;;;;;5047480;28;20048;-40
2023/10/31 02:10:52;;;;;;;5.10;1.42;;;15.30;1.00;;;;;;5042025;28;20037;-40
2023/10/31 02:13:18;;;;;;;4.45;1.40;;;16.10;1.00;;;;;;5040525;28;20044;-40
2023/10/31 02:15:44;;;;;;;4.85;1.38;;;;;;;;;;5041859;28;20037;-40
2023/10/31 02:18:10;;;;;;;5.10;1.40;;;14.90;1.00;;;;;;5040110;28;20041;-41
2023/10/31 02:20:36;;;;;;;7.47;1.70;;;15.00;1.00;;;;;;5044637;28;20102;-40
2023/10/31 02:23:05;;;;;;;5.93;1.60;;;;;;;;;;5040065;28;20037;-40
2023/10/31 02:25:32;;;;;;;4.68;1.63;;;;;;;;;;5043014;28;20128;-41
2023/10/31 02:27:58;;;;;;;6.40;1.42;;;14.90;1.00;;;;;;5048308;28;20123;-41
2023/10/31 02:30:24;;;;;;;6.50;1.60;;;15.40;1.00;;;;;;5049400;28;20453;-41
2023/10/31 02:32:49;;;;;;;5.07;1.45;;;15.40;1.00;;;;;;5048620;28;20039;-41
2023/10/31 02:35:17;;;;;;;4.50;1.20;;;15.10;1.00;;;;;;5048335;28;20108;-41
2023/10/31 02:37:43;;;;;;;5.88;1.88;;;15.30;1.00;;;;;;5047191;28;20041;-40
2023/10/31 02:40:09;;;;;;;7.57;2.08;;;15.20;1.00;;;;;;5048620;28;20136;-40
2023/10/31 02:42:35;;;;;;;6.65;1.90;;;15.40;1.00;;;;;;5041099;28;20048;-41
2023/10/31 02:45:01;;;;;;;5.43;1.38;;;15.90;1.00;;;;;;5041224;28;20053;-41
2023/10/31 02:47:26;;;;;;;4.65;1.67;;;15.30;1.00;;;;;;5042523;28;20051;-41
2023/10/31 02:49:52;;;;;;;4.95;1.40;;;15.40;1.00;;;;;;5047245;28;20043;-41
2023/10/31 02:52:17;;;;;;;7.55;1.98;;;15.30;1.00;;;;;;5049144;28;20041;-40
2023/10/31 02:54:43;;;;;;;6.65;1.85;;;15.40;1.00;;;;;;5050129;28;20113;-41
2023/10/31 02:57:10;;;;;;;10.95;2.70;;;;;;;;;;5048556;28;20058;-41
2023/10/31 02:59:35;;;;;;;9.38;1.73;;;15.20;1.00;;;;;;5044805;28;20404;-41
2023/10/31 03:02:01;;;;;;;6.05;1.38;;;;;;;;;;5048115;28;20033;-41
2023/10/31 03:04:27;;;;;;;7.35;1.50;;;15.30;1.00;;;;;;5047785;28;20041;-41
2023/10/31 03:06:53;;;;;;;6.75;1.70;;;16.00;1.00;;;;;;5042780;28;20052;-41
2023/10/31 03:09:19;;;;;;;5.70;1.52;;;;;;;;;;5042491;28;20094;-40
2023/10/31 03:11:45;;;;;;;5.15;1.60;;;;;;;;;;5038460;28;20404;-41
2023/10/31 03:14:10;;;;;;;5.53;1.48;;;;;;;;;;5043727;28;20039;-40
2023/10/31 03:16:36;;;;;;;6.32;1.63;;;15.20;1.00;;;;;;5042704;28;20068;-40
2023/10/31 03:19:02;;;;;;;6.20;1.52;;;15.40;1.00;;;;;;5043224;28;20033;-41
2023/10/31 03:21:27;;;;;;;7.22;1.65;;;15.30;1.00;;;;;;5043748;28;20044;-41
2023/10/31 03:23:55;;;;;;;5.95;1.70;;;15.40;1.00;;;;;;5048353;28;20497;-40
2023/10/31 03:26:21;;;;;;;6.28;1.65;;;15.30;1.00;;;;;;5051252;28;20044;-40
2023/10/31 03:28:47;;;;;;;4.90;1.50;;;15.80;1.00;;;;;;5052293;28;20036;-40
2023/10/31 03:31:13;;;;;;;5.30;1.70;;;15.10;1.00;;;;;;5061125;28;20400;-44
2023/10/31 03:33:39;;;;;;;7.00;1.58;;;15.20;1.00;;;;;;5049341;28;20044;-41
2023/10/31 03:36:05;;;;;;;6.07;2.08;;;14.90;1.00;;;;;;5055199;28;20039;-41
2023/10/31 03:38:31;;;;;;;6.53;1.67;;;;;;;;;;5049850;28;20484;-41
2023/10/31 03:40:57;;;;;;;6.32;1.60;;;14.60;1.00;;;;;;5051422;28;20404;-41
2023/10/31 03:43:23;;;;;;;3.60;1.00;;;15.10;1.00;;;;;;5051617;28;20041;-41
2023/10/31 03:45:49;;;;;;;6.65;1.35;;;15.70;1.00;;;;;;5050952;28;20033;-40
2023/10/31 03:48:16;;;;;;;6.05;1.30;;;15.20;1.00;;;;;;5047205;28;20115;-41
2023/10/31 03:50:42;;;;;;;4.05;1.15;;;;;;;;;;5055951;28;20036;-39
2023/10/31 03:53:08;;;;;;;5.28;1.45;;;;;;;;;;5054701;28;20036;-41
2023/10/31 03:55:34;;;;;;;4.03;1.23;;;15.30;1.00;;;;;;5047950;28;20044;-41
2023/10/31 03:58:00;;;;;;;5.13;1.10;;;14.90;1.00;;;;;;5050702;28;20029;-43
2023/10/31 04:00:25;;;;;;;5.65;1.58;;;15.10;1.00;;;;;;5051395;28;20029;-41
2023/10/31 04:02:51;;;;;;;5.85;1.30;;;15.20;1.00;;;;;;5047801;28;20102;-40
2023/10/31 04:05:17;;;;;;;4.68;1.50;;;15.10;1.00;;;;;;5049532;28;20036;-41
2023/10/31 04:07:43;;;;;;;6.63;1.45;;;15.20;1.00;;;;;;5045997;28;20514;-41
2023/10/31 04:10:09;;;;;;;4.78;1.20;;;15.10;1.00;;;;;;5040439;28;20041;-41
2023/10/31 04:12:35;;;;;;;5.18;1.20;;;14.90;1.00;;;;;;5049852;28;20408;-40
2023/10/31 04:15:01;;;;;;;5.30;1.38;;;15.10;1.00;;;;;;5052388;28;20404;-40
2023/10/31 04:17:27;;;;;;;5.07;1.60;;;14.70;1.00;;;;;;5055087;28;20440;-41
2023/10/31 04:19:52;;;;;;;2.72;1.00;;;15.10;1.00;;;;;;5053716;28;20164;-40
2023/10/31 04:22:18;;;;;;;5.95;2.25;;;;;;;;;;5060793;28;20120;-41
2023/10/31 04:24:47;;;;;;;4.97;1.27;;;15.10;1.00;;;;;;5050572;28;20140;-41
2023/10/31 04:27:13;;;;;;;5.05;1.40;;;14.90;1.00;;;;;;5055160;28;20140;-41
2023/10/31 04:29:39;;;;;;;4.03;1.63;;;14.80;1.00;;;;;;5053111;28;20040;-42
2023/10/31 04:32:05;;;;;;;6.10;1.88;;;;;;;;;;5050016;28;20535;-40
2023/10/31 04:34:32;;;;;;;6.32;1.42;;;;;;;;;;5052396;28;20049;-39
2023/10/31 04:36:57;;;;;;;3.53;1.10;;;15.10;1.00;;;;;;5029292;28;20404;-41
2023/10/31 04:39:24;;;;;;;4.53;1.20;;;;;;;;;;5049384;28;20123;-38
2023/10/31 04:41:49;;;;;;;3.83;1.13;;;15.00;1.00;;;;;;5048894;28;20511;-40
2023/10/31 04:44:16;;;;;;;7.55;1.42;;;14.90;1.00;;;;;;5055593;28;20033;-41
2023/10/31 04:46:42;;;;;;;3.38;1.00;;;14.90;1.00;;;;;;5049832;28;20420;-41
2023/10/31 04:49:08;;;;;;;3.55;1.00;;;15.60;1.00;;;;;;5043712;28;20039;-40
2023/10/31 04:51:35;;;;;;;3.15;0.90;;;15.30;1.00;;;;;;5039886;28;20041;-41
2023/10/31 04:54:00;;;;;;;4.07;1.00;;;15.10;1.00;;;;;;5043873;28;20037;-41
2023/10/31 04:56:26;;;;;;;5.05;1.02;;;;;;;;;;5045843;28;20079;-40
2023/10/31 04:58:52;;;;;;;3.35;1.00;;;;;;;;;;5049795;28;20547;-41
2023/10/31 05:01:19;;;;;;;3.95;0.98;;;15.10;1.00;;;;;;5045285;28;20044;-41
2023/10/31 05:03:45;;;;;;;3.85;0.98;;;15.20;1.00;;;;;;5074965;28;20523;-39
2023/10/31 05:06:10;;;;;;;5.90;1.20;;;15.10;1.00;;;;;;5042387;28;20033;-41
2023/10/31 05:08:36;;;;;;;4.20;0.82;;;14.60;1.00;;;;;;5047880;28;20037;-41
2023/10/31 05:11:02;;;;;;;4.68;1.10;;;15.20;1.00;;;;;;5045064;28;20044;-40
2023/10/31 05:13:27;;;;;;;5.85;1.10;;;15.20;1.00;;;;;;5046446;28;20033;-41
2023/10/31 05:15:53;;;;;;;4.35;1.00;;;15.20;1.00;;;;;;5037547;28;20496;-41
2023/10/31 05:18:20;;;;;;;3.42;0.90;;;;;;;;;;5046877;28;20680;-41
2023/10/31 05:20:46;;;;;;;6.72;0.98;;;;;;;;;;5039968;28;20049;-40
2023/10/31 05:23:12;;;;;;;5.18;1.15;;;;;;;;;;5040648;28;20041;-41
2023/10/31 05:25:38;;;;;;;3.67;1.00;;;;;;;;;;5043829;28;20037;-39
2023/10/31 05:28:04;;;;;;;4.15;1.00;;;;;;;;;;5041778;28;20168;-41
2023/10/31 05:30:30;;;;;;;13.43;2.05;;;;;;;;;;5047598;28;20045;-40
2023/10/31 05:32:56;;;;;;;10.75;2.50;;;15.30;1.00;;;;;;5046397;28;20047;-41
2023/10/31 05:35:22;;;;;;;46.53;12.20;;;15.40;1.00;;;;;;5040281;28;20037;-42
2023/10/31 05:37:48;;;;;;;37.97;9.35;;;15.40;1.00;;;;;;5042474;28;20125;-40
2023/10/31 05:40:15;;;;;;;28.83;8.32;;;;;;;;;;5053204;28;20032;-41
2023/10/31 05:42:41;;;;;;;37.17;12.07;;;16.30;1.00;;;;;;5046813;28;20091;-40
2023/10/31 05:45:07;;;;;;;35.33;10.13;;;;;;;;;;5050803;28;20056;-41
2023/10/31 05:47:51;;;;;;;29.83;8.40;;;;;;;;;;5047488;28;20040;-41
2023/10/31 05:50:22;;;;;;;21.15;6.28;;;15.60;1.00;;;;;;5043888;28;20113;-41
2023/10/31 05:52:48;;;;;;;25.25;7.00;;;15.40;1.00;;;;;;5042671;28;20041;-41
2023/10/31 05:55:13;;;;;;;13.80;4.35;;;15.70;1.00;;;;;;5034280;28;20043;-41
2023/10/31 05:57:39;;;;;;;13.25;3.63;;;15.50;1.00;;;;;;5035715;28;20128;-41
2023/10/31 06:00:12;;;;;;;13.40;5.05;;;;;;;;;;5033052;28;20303;-41
2023/10/31 06:02:40;;;;;;;14.68;4.88;;;;;;;;;;5046304;28;20041;-41
2023/10/31 06:05:07;;;;;;;12.48;4.32;;;15.50;1.00;;;;;;5044909;28;20052;-40
2023/10/31 06:07:33;;;;;;;18.08;4.65;;;;;;;;;;5040843;28;20471;-41
2023/10/31 06:09:58;;;;;;;11.63;4.45;;;15.70;1.00;;;;;;5038647;28;20099;-41
2023/10/31 06:12:24;;;;;;;14.02;3.88;;;;;;;;;;5043600;28;20152;-41
2023/10/31 06:14:50;;;;;;;14.65;3.80;;;15.90;1.00;;;;;;5041394;28;20202;-40
2023/10/31 06:17:16;;;;;;;12.50;4.28;;;16.30;1.00;;;;;;5046509;28;20544;-41
2023/10/31 06:19:45;;;;;;;10.73;3.28;;;15.80;1.00;;;;;;5037253;28;20128;-41
2023/10/31 06:22:13;;;;;;;9.00;2.85;;;15.70;1.00;;;;;;5044541;28;20033;-41
2023/10/31 06:24:42;;;;;;;7.63;2.65;;;15.70;1.00;;;;;;5036707;28;20048;-39
2023/10/31 06:27:08;;;;;;;7.13;2.53;;;15.70;1.00;;;;;;5041574;28;20069;-39
2023/10/31 06:29:33;;;;;;;8.20;2.58;;;16.10;1.00;;;;;;5037269;28;20505;-41
2023/10/31 06:31:59;;;;;;;9.18;2.67;;;15.60;1.00;;;;;;5040514;28;20508;-41
2023/10/31 06:34:24;;;;;;;6.40;1.50;;;15.70;1.00;;;;;;5039861;28;20112;-41
2023/10/31 06:36:52;;;;;;;7.40;2.63;;;15.00;1.00;;;;;;5042912;28;20032;-41
2023/10/31 06:39:18;;;;;;;6.35;2.00;;;;;;;;;;5046684;28;20048;-40
2023/10/31 06:41:43;;;;;;;8.55;3.10;;;15.20;1.00;;;;;;5043114;28;20043;-40
2023/10/31 06:44:09;;;;;;;5.30;2.20;;;15.60;1.00;;;;;;5045781;28;20132;-41
2023/10/31 06:46:35;;;;;;;6.38;1.75;;;;;;;;;;5047200;28;20041;-40
2023/10/31 06:49:01;;;;;;;5.18;1.25;;;15.50;1.00;;;;;;5045896;28;20377;-41
2023/10/31 06:51:29;;;;;;;6.22;1.65;;;15.40;1.00;;;;;;5048824;28;20037;-41
2023/10/31 06:53:55;;;;;;;6.43;1.95;;;15.50;1.00;;;;;;5043330;28;20043;-41
2023/10/31 06:56:21;;;;;;;5.85;1.40;;;15.60;1.00;;;;;;5046137;28;20112;-41
2023/10/31 06:58:46;;;;;;;4.20;0.90;;;15.40;1.00;;;;;;5050761;28;20075;-41
2023/10/31 07:01:13;;;;;;;4.57;1.10;;;16.00;1.00;;;;;;5045528;28;20036;-41
2023/10/31 07:03:39;;;;;;;4.90;1.17;;;;;;;;;;5047010;28;20068;-39
2023/10/31 07:06:06;;;;;;;4.35;0.90;;;15.20;1.00;;;;;;5049388;28;20131;-41
2023/10/31 07:08:31;;;;;;;4.85;1.20;;;15.60;1.00;;;;;;5049119;28;20064;-41
2023/10/31 07:10:58;;;;;;;3.85;1.65;;;14.90;1.00;;;;;;5051568;28;20128;-41
2023/10/31 07:13:23;;;;;;;2.58;0.75;;;15.40;1.00;;;;;;5049091;28;20124;-40
2023/10/31 07:15:49;;;;;;;6.75;1.52;;;15.30;1.00;;;;;;5044098;28;20110;-41
2023/10/31 07:18:14;;;;;;;4.32;1.00;;;14.80;1.00;;;;;;5051106;28;20036;-41
2023/10/31 07:20:40;;;;;;;3.67;0.90;;;15.30;1.00;;;;;;5050988;28;20143;-41
2023/10/31 07:23:06;;;;;;;4.05;1.00;;;15.00;1.00;;;;;;5039466;28;20413;-40
2023/10/31 07:25:31;;;;;;;3.97;0.90;;;14.70;1.00;;;;;;5043442;28;20033;-41
2023/10/31 07:27:57;;;;;;;3.55;0.80;;;14.80;1.00;;;;;;5044436;28;20402;-41
2023/10/31 07:30:26;;;;;;;2.28;1.10;;;15.10;1.00;;;;;;5046257;28;20120;-41
2023/10/31 07:32:52;;;;;;;3.83;1.08;;;15.20;1.00;;;;;;5046577;28;20045;-41
2023/10/31 07:35:19;;;;;;;1.98;0.60;;;;;;;;;;5046395;28;20068;-40
2023/10/31 07:37:45;;;;;;;2.70;0.70;;;15.80;1.00;;;;;;5049777;28;20518;-41
2023/10/31 07:40:11;;;;;;;3.10;0.70;;;15.10;1.00;;;;;;5051303;28;20026;-40
2023/10/31 07:42:37;;;;;;;3.28;0.80;;;14.90;1.00;;;;;;5046131;28;20044;-40
2023/10/31 07:45:03;;;;;;;3.28;0.60;;;;;;;;;;5043835;28;20032;-41
2023/10/31 07:47:29;;;;;;;3.30;0.70;;;;;;;;;;5043760;28;20508;-41
2023/10/31 07:49:55;;;;;;;6.45;0.82;;;15.10;1.00;;;;;;5052196;28;20059;-39
2023/10/31 07:52:30;;;;;;;2.15;0.73;;;15.00;1.00;;;;;;5030139;28;20067;-41
2023/10/31 07:54:59;;;;;;;3.33;0.82;;;14.80;1.00;;;;;;5046379;28;20064;-41
2023/10/31 07:57:25;;;;;;;2.22;0.80;;;15.00;1.00;;;;;;5045060;28;20057;-41
2023/10/31 07:59:50;;;;;;;4.68;0.90;;;15.20;1.00;;;;;;5040784;28;20496;-41
2023/10/31 08:02:19;;;;;;;3.53;0.93;;;14.70;1.00;;;;;;5042545;28;20412;-40
2023/10/31 08:04:50;;;;;;;3.38;0.90;;;15.00;1.00;;;;;;5041187;28;20045;-41
2023/10/31 08:07:16;;;;;;;2.45;0.88;;;14.90;1.00;;;;;;5038260;28;20045;-41
2023/10/31 08:09:42;;;;;;;4.57;1.08;;;14.90;1.00;;;;;;5046756;28;20049;-41
2023/10/31 08:12:08;;;;;;;3.65;0.95;;;;;;;;;;5037933;28;20041;-41
2023/10/31 08:14:34;;;;;;;2.83;0.85;;;14.90;1.00;;;;;;5045246;28;20099;-40
2023/10/31 08:17:02;;;;;;;4.53;1.00;;;;;;;;;;5044935;28;20130;-41
2023/10/31 08:19:28;;;;;;;3.65;0.68;;;14.90;1.00;;;;;;5051372;28;20047;-40
2023/10/31 08:21:54;;;;;;;1.90;0.70;;;15.30;1.00;;;;;;5048446;28;20040;-41
2023/10/31 08:24:19;;;;;;;3.38;0.77;;;14.90;1.00;;;;;;5042410;28;20098;-41
2023/10/31 08:26:45;;;;;;;5.43;1.13;;;;;;;;;;5046017;28;20043;-40
2023/10/31 08:29:11;;;;;;;4.63;1.00;;;15.00;1.00;;;;;;5040997;28;20049;-41
2023/10/31 08:31:36;;;;;;;2.60;0.90;;;15.00;1.00;;;;;;5049198;28;20038;-41
2023/10/31 08:34:02;;;;;;;3.45;1.35;;;14.90;1.00;;;;;;5042166;28;20090;-41
2023/10/31 08:36:30;;;;;;;3.28;0.95;;;;;;;;;;5046480;28;20029;-41
2023/10/31 08:38:56;;;;;;;4.78;1.10;;;15.00;1.00;;;;;;5048416;28;20139;-41
2023/10/31 08:41:25;;;;;;;4.80;1.00;;;;;;;;;;5033635;28;20131;-40
2023/10/31 08:43:54;;;;;;;3.08;0.90;;;15.00;1.00;;;;;;5046169;28;20045;-41
2023/10/31 08:46:19;;;;;;;4.88;1.10;;;15.00;1.00;;;;;;5045845;28;20060;-41
2023/10/31 08:48:45;;;;;;;3.42;0.88;;;14.50;1.00;;;;;;5037713;28;20049;-41
2023/10/31 08:51:11;;;;;;;6.78;1.20;;;14.90;1.00;;;;;;5048689;28;20041;-41
2023/10/31 08:53:36;;;;;;;9.10;1.42;;;14.80;1.00;;;;;;5047045;28;20040;-40
2023/10/31 08:56:08;;;;;;;6.38;1.15;;;;;;;;;;5047833;28;20433;-41
2023/10/31 08:58:33;;;;;;;4.65;1.10;;;15.10;1.00;;;;;;5048909;28;20044;-41
2023/10/31 09:01:05;;;;;;;3.85;1.15;;;;;;;;;;5045951;28;20094;-41
2023/10/31 09:03:30;;;;;;;4.72;1.00;;;15.60;1.00;;;;;;5043337;28;20072;-42
2023/10/31 09:05:56;;;;;;;4.70;1.10;;;;;;;;;;5041597;28;20075;-43
2023/10/31 09:08:25;;;;;;;7.20;1.42;;;;;;;;;;5049258;28;20679;-39
2023/10/31 09:10:54;;;;;;;5.53;1.10;;;;;;;;;;5040893;28;20041;-40
2023/10/31 09:13:20;;;;;;;6.97;1.55;;;;;;;;;;5050949;28;20431;-40
2023/10/31 09:15:46;;;;;;;7.72;1.33;;;16.00;1.00;;;;;;5045514;28;20095;-39
2023/10/31 09:18:12;;;;;;;4.15;0.98;;;14.90;1.00;;;;;;5043881;28;20385;-40
2023/10/31 09:20:47;;;;;;;5.70;0.98;;;15.90;1.00;;;;;;5073389;28;20451;-40
2023/10/31 09:23:13;;;;;;;4.53;1.02;;;;;;;;;;5046498;28;20055;-40
2023/10/31 09:25:39;;;;;;;3.90;1.00;;;;;;;;;;5051021;28;20075;-39
2023/10/31 09:28:05;;;;;;;4.78;1.35;;;15.00;1.00;;;;;;5046462;28;20045;-40
2023/10/31 09:30:31;;;;;;;4.72;1.05;;;14.90;1.00;;;;;;5047113;28;20056;-39
2023/10/31 09:32:57;;;;;;;4.07;0.95;;;15.00;1.00;;;;;;5049625;28;20045;-40
2023/10/31 09:35:26;;;;;;;3.05;0.90;;;15.60;1.00;;;;;;5046813;28;20103;-40
2023/10/31 09:37:52;;;;;;;4.88;1.10;;;15.30;1.00;;;;;;5048820;28;20163;-40
2023/10/31 09:40:18;;;;;;;5.50;1.30;;;;;;;;;;5047833;28;20112;-38
2023/10/31 09:42:45;;;;;;;3.85;0.95;;;15.10;1.00;;;;;;5048896;28;20500;-40
2023/10/31 09:45:10;;;;;;;4.10;1.00;;;15.60;1.00;;;;;;5049508;28;20047;-39
2023/10/31 09:47:36;;;;;;;5.90;0.98;;;15.20;1.00;;;;;;5049952;28;20037;-38
2023/10/31 09:50:05;;;;;;;4.28;1.00;;;15.20;1.00;;;;;;5049193;28;20083;-40
2023/10/31 09:52:35;;;;;;;5.13;1.00;;;15.70;1.00;;;;;;5043823;28;20575;-40
2023/10/31 09:55:10;;;;;;;4.97;1.15;;;14.90;1.00;;;;;;5045769;28;20178;-40
2023/10/31 09:57:41;;;;;;;5.28;1.00;;;15.00;1.00;;;;;;5029246;28;20045;-40
2023/10/31 10:00:16;;;;;;;3.45;1.10;;;;;;;;;;5048490;28;20037;-40
2023/10/31 10:02:45;;;;;;;4.82;1.42;;;15.20;1.00;;;;;;5047348;28;20043;-40
2023/10/31 10:05:16;;;;;;;4.70;1.00;;;15.80;1.00;;;;;;5049750;28;20041;-40
2023/10/31 10:07:45;;;;;;;4.18;0.88;;;;;;;;;;5044382;28;20049;-40
2023/10/31 10:10:14;;;;;;;4.85;0.93;;;15.30;1.00;;;;;;5043433;28;20049;-40
2023/10/31 10:12:46;;;;;;;3.83;1.10;;;15.70;1.00;;;;;;5047105;28;20593;-40
2023/10/31 10:15:14;;;;;;;4.40;1.00;;;15.10;1.00;;;;;;5047391;28;20033;-40
2023/10/31 10:17:48;;;;;;;3.58;0.90;;;;;;;;;;5042735;28;20045;-40
2023/10/31 10:20:15;;;;;;;6.13;1.10;;;;;;;;;;5046228;28;20206;-39
2023/10/31 10:22:44;;;;;;;4.03;0.85;;;15.00;1.00;;;;;;5045215;28;20053;-40
2023/10/31 10:25:15;;;;;;;4.85;1.40;;;;;;;;;;5048049;28;20055;-40
2023/10/31 10:27:44;;;;;;;4.38;0.85;;;15.20;1.00;;;;;;5046238;28;20037;-40
2023/10/31 10:30:11;;;;;;;3.25;0.93;;;;;;;;;;5043100;28;20037;-40
2023/10/31 10:32:37;;;;;;;3.97;0.98;;;15.80;1.00;;;;;;5046752;28;20041;-40
2023/10/31 10:35:06;;;;;;;3.80;0.90;;;14.90;1.00;;;;;;5043422;28;20065;-40
2023/10/31 10:37:33;;;;;;;4.57;1.00;;;15.40;1.00;;;;;;5046201;28;20045;-40
2023/10/31 10:39:59;;;;;;;4.45;1.05;;;14.90;1.00;;;;;;5043729;28;20112;-40
2023/10/31 10:42:33;;;;;;;5.45;1.13;;;15.40;1.00;;;;;;5042476;28;20500;-39
2023/10/31 10:45:11;;;;;;;5.30;1.00;;;16.10;1.00;;;;;;5043414;28;20041;-40
2023/10/31 10:47:37;;;;;;;5.05;1.08;;;15.20;1.00;;;;;;5044493;28;20037;-40
2023/10/31 10:50:09;;;;;;;4.55;1.00;;;;;;;;;;5046507;28;20045;-40
2023/10/31 10:53:10;;;;;;;3.70;1.10;;;14.90;1.00;;;;;;5045362;28;20047;-40
2023/10/31 10:55:43;;;;;;;3.78;1.00;;;15.40;1.00;;;;;;5046773;28;20036;-40
2023/10/31 10:58:17;;;;;;;7.25;2.45;;;15.30;1.00;;;;;;5031549;28;20103;-40
2023/10/31 11:00:44;;;;;;;3.72;1.00;;;14.80;1.00;;;;;;5046548;28;20045;-40
2023/10/31 11:03:10;;;;;;;5.45;1.10;;;;;;;;;;5051896;28;20037;-40
2023/10/31 11:05:36;;;;;;;4.90;1.00;;;15.30;1.00;;;;;;5046028;28;20059;-40
2023/10/31 11:08:06;;;;;;;4.72;1.00;;;16.00;1.00;;;;;;5048801;28;20037;-40
2023/10/31 11:10:32;;;;;;;2.53;0.82;;;15.50;1.00;;;;;;5047849;28;20500;-39
2023/10/31 11:12:58;;;;;;;4.60;0.98;;;15.40;1.00;;;;;;5047985;28;20056;-40
2023/10/31 11:15:25;;;;;;;4.03;0.90;;;16.10;1.00;;;;;;5046032;28;20037;-40
2023/10/31 11:17:54;;;;;;;2.63;0.85;;;;;;;;;;5046098;28;20037;-40
2023/10/31 11:20:20;;;;;;;5.38;1.60;;;16.20;1.00;;;;;;5044325;28;20040;-39
2023/10/31 11:22:49;;;;;;;3.88;1.00;;;;;;;;;;5044773;28;20060;-40
2023/10/31 11:25:23;;;;;;;2.75;0.88;;;;;;;;;;5048062;28;20044;-43
2023/10/31 11:27:52;;;;;;;3.78;0.93;;;15.40;1.00;;;;;;5045526;28;20045;-40
2023/10/31 11:30:22;;;;;;;3.88;0.90;;;;;;;;;;5046938;28;20129;-40
2023/10/31 11:32:58;;;;;;;4.20;1.00;;;;;;;;;;5048460;28;20053;-40
2023/10/31 11:35:24;;;;;;;3.92;1.40;;;14.90;1.00;;;;;;5042616;28;20037;-40
2023/10/31 11:38:01;;;;;;;4.90;1.23;;;15.50;1.00;;;;;;5050276;28;20147;-40
2023/10/31 11:40:27;;;;;;;4.35;0.80;;;;;;;;;;5043098;28;20386;-40
2023/10/31 11:42:57;;;;;;;4.50;0.98;;;16.20;1.00;;;;;;5052795;28;20041;-40
2023/10/31 11:45:35;;;;;;;5.90;1.45;;;15.80;1.00;;;;;;5049655;28;20124;-40
2023/10/31 11:48:01;;;;;;;4.80;1.25;;;15.90;1.00;;;;;;5047293;28;20044;-40
2023/10/31 11:50:34;;;;;;;4.15;1.10;;;15.00;1.00;;;;;;5046877;28;20041;-40
2023/10/31 11:53:07;;;;;;;3.97;1.00;;;16.10;1.00;;;;;;5051058;28;20041;-40
2023/10/31 11:55:56;;;;;;;4.70;1.10;;;;;;;;;;5049529;28;20065;-40
2023/10/31 11:58:25;;;;;;;4.35;1.00;;;15.20;1.00;;;;;;5050503;28;20059;-40
2023/10/31 12:01:04;;;;;;;5.05;1.20;;;15.10;1.00;;;;;;5051185;28;20041;-40
2023/10/31 12:03:42;;;;;;;3.53;0.98;;;;;;;;;;5052162;28;20555;-40
2023/10/31 12:06:14;;;;;;;6.03;1.40;;;15.50;1.00;;;;;;5046877;28;20041;-39
2023/10/31 12:08:44;;;;;;;5.05;1.17;;;;;;;;;;5048701;28;20491;-40
2023/10/31 12:11:19;;;;;;;2.90;1.00;;;15.20;1.00;;;;;;5055261;28;20040;-40
2023/10/31 12:13:56;;;;;;;5.65;1.13;;;15.80;1.00;;;;;;5050731;28;20057;-40
2023/10/31 12:16:26;;;;;;;5.50;1.17;;;;;;;;;;5046837;28;20549;-40
2023/10/31 12:19:00;;;;;;;4.57;1.10;;;15.00;1.00;;;;;;5049548;28;20083;-40
2023/10/31 12:21:35;;;;;;;5.35;1.00;;;;;;;;;;5044714;28;20037;-40
2023/10/31 12:24:09;;;;;;;4.80;1.15;;;15.10;1.00;;;;;;5038768;28;20053;-40
2023/10/31 12:26:36;;;;;;;4.85;1.30;;;15.50;1.00;;;;;;5045063;28;20029;-39
2023/10/31 12:29:08;;;;;;;3.55;0.95;;;15.50;1.00;;;;;;5046629;28;20087;-40
2023/10/31 12:31:34;;;;;;;3.58;0.82;;;15.40;1.00;;;;;;5046071;28;20052;-39
2023/10/31 12:34:06;;;;;;;3.42;1.10;;;15.70;1.00;;;;;;5048203;28;21078;-40
2023/10/31 12:36:33;;;;;;;4.03;1.33;;;15.20;1.00;;;;;;5045787;28;20033;-40
2023/10/31 12:38:59;;;;;;;5.35;1.20;;;;;;;;;;5052148;28;20458;-40
2023/10/31 12:41:25;;;;;;;4.35;1.20;;;15.40;1.00;;;;;;5047873;28;20036;-40
2023/10/31 12:43:51;;;;;;;5.88;1.10;;;14.90;1.00;;;;;;5046080;28;20033;-40
2023/10/31 12:46:27;;;;;;;4.22;1.00;;;;;;;;;;5046462;28;20132;-40
2023/10/31 12:48:53;;;;;;;3.97;1.10;;;15.00;1.00;;;;;;5073180;28;20045;-40
2023/10/31 12:51:18;;;;;;;4.07;1.00;;;15.30;1.00;;;;;;5047562;28;20126;-40
2023/10/31 12:53:52;;;;;;;6.03;1.40;;;16.10;1.00;;;;;;5043653;28;20558;-39
2023/10/31 12:56:40;;;;;;;4.75;1.02;;;15.50;1.00;;;;;;5045848;28;20565;-39
2023/10/31 12:59:13;;;;;;;4.38;1.25;;;15.50;1.00;;;;;;5047137;28;20048;-40
2023/10/31 13:01:45;;;;;;;5.15;1.30;;;;;;;;;;5040471;28;20036;-40
2023/10/31 13:04:27;;;;;;;3.72;1.13;;;16.30;1.00;;;;;;5045408;28;20039;-40
2023/10/31 13:07:01;;;;;;;4.53;1.05;;;15.50;1.00;;;;;;5037022;28;20047;-39
2023/10/31 13:09:35;;;;;;;3.83;1.02;;;;;;;;;;5045927;28;20423;-40
2023/10/31 13:12:08;;;;;;;3.45;0.82;;;15.30;1.00;;;;;;5050661;28;20491;-40
2023/10/31 13:14:39;;;;;;;4.55;1.10;;;15.70;1.00;;;;;;5046769;28;20666;-38
2023/10/31 13:17:14;;;;;;;2.67;0.85;;;15.70;1.00;;;;;;5045288;28;20036;-40
2023/10/31 13:19:41;;;;;;;4.25;1.10;;;;;;;;;;5047984;28;20033;-40
2023/10/31 13:22:06;;;;;;;5.20;1.73;;;15.90;1.00;;;;;;5046499;28;20045;-40
2023/10/31 13:24:33;;;;;;;3.35;1.10;;;;;;;;;;5043511;28;20051;-40